createdAt,value
2022-08-23T00:00:32.291Z,73.76
2022-08-23T00:03:35.471Z,74.17
2022-08-23T00:06:38.449Z,73.50
2022-08-23T00:09:40.854Z,73.39
2022-08-23T00:12:45.011Z,72.92
2022-08-23T00:15:47.083Z,72.94
2022-08-23T00:18:49.579Z,73.11
2022-08-23T00:21:54.949Z,72.39
2022-08-23T00:24:57.086Z,72.54
2022-08-23T00:27:59.608Z,72.72
2022-08-23T00:31:01.932Z,72.68
2022-08-23T00:34:04.172Z,72.39
2022-08-23T00:37:08.666Z,72.18
2022-08-23T00:40:13.974Z,72.68
2022-08-23T00:43:37.127Z,72.22
2022-08-23T00:47:06.776Z,73.07
2022-08-23T00:50:49.336Z,72.71
2022-08-23T00:53:55.762Z,72.34
2022-08-23T00:57:01.672Z,72.70
2022-08-23T01:00:08.036Z,72.08
2022-08-23T01:03:12.387Z,72.58
2022-08-23T01:06:17.044Z,72.36
2022-08-23T01:09:21.674Z,72.49
2022-08-23T01:12:39.692Z,71.90
2022-08-23T01:15:48.059Z,72.25
2022-08-23T01:18:51.838Z,72.20
2022-08-23T01:22:14.689Z,72.57
2022-08-23T01:25:21.647Z,72.11
2022-08-23T01:28:25.222Z,72.81
2022-08-23T01:31:27.513Z,72.09
2022-08-23T01:34:29.856Z,71.76
2022-08-23T01:37:37.118Z,72.06
2022-08-23T01:40:40.487Z,71.97
2022-08-23T01:43:42.613Z,71.96
2022-08-23T01:46:47.394Z,71.85
2022-08-23T01:49:49.509Z,71.43
2022-08-23T01:52:52.315Z,71.61
2022-08-23T01:55:56.578Z,71.86
2022-08-23T01:58:59.824Z,71.90
2022-08-23T02:02:07.516Z,72.25
2022-08-23T02:05:10.540Z,72.41
2022-08-23T02:08:46.419Z,71.33
2022-08-23T02:11:49.874Z,71.91
2022-08-23T02:14:52.056Z,72.14
2022-08-23T02:18:00.481Z,72.14
2022-08-23T02:21:04.580Z,71.64
2022-08-23T02:24:14.123Z,71.80
2022-08-23T02:27:17.330Z,71.91
2022-08-23T02:30:20.660Z,71.79
2022-08-23T02:33:22.946Z,71.87
2022-08-23T02:36:25.406Z,71.23
2022-08-23T02:39:28.697Z,72.03
2022-08-23T02:42:31.114Z,71.81
2022-08-23T02:45:35.160Z,71.43
2022-08-23T02:48:37.779Z,71.92
2022-08-23T02:51:41.800Z,71.27
2022-08-23T02:54:44.555Z,72.08
2022-08-23T02:57:46.921Z,71.05
2022-08-23T03:00:50.311Z,71.67
2022-08-23T03:03:54.059Z,71.33
2022-08-23T03:06:56.414Z,71.41
2022-08-23T03:09:59.215Z,71.52
2022-08-23T03:13:02.946Z,70.70
2022-08-23T03:16:05.285Z,71.71
2022-08-23T03:19:07.669Z,70.81
2022-08-23T03:22:10.099Z,71.17
2022-08-23T03:25:12.576Z,70.85
2022-08-23T03:28:47.682Z,71.31
2022-08-23T03:31:51.756Z,70.84
2022-08-23T03:34:56.957Z,71.85
2022-08-23T03:37:59.552Z,71.59
2022-08-23T03:41:02.031Z,71.38
2022-08-23T03:44:05.328Z,71.74
2022-08-23T03:47:11.029Z,71.43
2022-08-23T03:50:16.398Z,71.03
2022-08-23T03:53:19.070Z,70.94
2022-08-23T03:56:24.292Z,71.19
2022-08-23T03:59:27.996Z,71.38
2022-08-23T04:02:30.242Z,70.86
2022-08-23T04:05:32.434Z,70.82
2022-08-23T04:08:40.352Z,70.92
2022-08-23T04:11:43.372Z,71.56
2022-08-23T04:14:45.876Z,70.89
2022-08-23T04:17:49.868Z,70.32
2022-08-23T04:20:52.896Z,70.94
2022-08-23T04:23:58.016Z,70.42
2022-08-23T04:27:00.310Z,70.82
2022-08-23T04:30:03.051Z,70.65
2022-08-23T04:33:09.953Z,71.35
2022-08-23T04:36:13.963Z,70.62
2022-08-23T04:39:16.912Z,71.20
2022-08-23T04:42:21.738Z,71.27
2022-08-23T04:45:27.258Z,71.17
2022-08-23T04:48:29.841Z,71.31
2022-08-23T04:51:32.392Z,71.12
2022-08-23T04:54:34.651Z,70.68
2022-08-23T04:58:03.117Z,71.05
2022-08-23T05:01:11.095Z,71.29
2022-08-23T05:04:14.545Z,70.53
2022-08-23T05:07:17.245Z,70.92
2022-08-23T05:10:20.158Z,70.32
2022-08-23T05:13:26.458Z,70.41
2022-08-23T05:16:28.709Z,70.87
2022-08-23T05:19:47.000Z,70.82
2022-08-23T05:22:50.716Z,71.12
2022-08-23T05:26:04.245Z,70.69
2022-08-23T05:29:11.005Z,70.71
2022-08-23T05:32:19.164Z,70.89
2022-08-23T05:35:21.882Z,71.30
2022-08-23T05:38:25.661Z,70.76
2022-08-23T05:41:37.888Z,70.63
2022-08-23T05:44:45.385Z,71.33
2022-08-23T05:47:47.858Z,70.67
2022-08-23T05:51:25.371Z,71.18
2022-08-23T05:54:28.479Z,71.79
2022-08-23T05:58:09.199Z,70.90
2022-08-23T06:01:12.091Z,71.11
2022-08-23T06:04:15.755Z,71.28
2022-08-23T06:07:19.916Z,70.96
2022-08-23T06:10:22.405Z,71.44
2022-08-23T06:13:39.267Z,71.43
2022-08-23T06:16:44.686Z,71.40
2022-08-23T06:19:48.139Z,71.66
2022-08-23T06:22:59.906Z,70.90
2022-08-23T06:26:02.381Z,71.03
2022-08-23T06:29:13.717Z,71.53
2022-08-23T06:32:16.228Z,71.18
2022-08-23T06:35:41.846Z,70.90
2022-08-23T06:38:51.062Z,70.29
2022-08-23T06:45:39.981Z,70.37
2022-08-23T06:48:44.036Z,70.96
2022-08-23T06:51:51.247Z,71.21
2022-08-23T06:55:02.957Z,70.49
2022-08-23T06:58:23.902Z,71.31
2022-08-23T07:01:51.111Z,71.55
2022-08-23T07:05:01.353Z,71.12
2022-08-23T07:08:24.837Z,71.47
2022-08-23T07:11:33.160Z,70.92
2022-08-23T07:14:37.468Z,70.48
2022-08-23T07:17:39.955Z,70.44
2022-08-23T07:20:42.285Z,70.59
2022-08-23T07:23:46.617Z,70.68
2022-08-23T07:26:52.322Z,70.19
2022-08-23T07:29:54.869Z,70.02
2022-08-23T07:32:56.968Z,70.35
2022-08-23T07:36:03.393Z,70.22
2022-08-23T07:39:07.522Z,70.15
2022-08-23T07:42:23.857Z,70.49
2022-08-23T07:45:29.650Z,70.06
2022-08-23T07:48:53.072Z,70.81
2022-08-23T07:52:02.677Z,70.25
2022-08-23T07:55:05.537Z,70.40
2022-08-23T07:58:26.888Z,70.28
2022-08-23T08:02:04.076Z,70.72
2022-08-23T08:05:07.928Z,70.67
2022-08-23T08:08:11.160Z,70.81
2022-08-23T08:11:16.531Z,71.03
2022-08-23T08:14:18.819Z,70.30
2022-08-23T08:17:27.616Z,70.17
2022-08-23T08:21:13.798Z,70.34
2022-08-23T08:24:42.869Z,70.38
2022-08-23T08:27:48.376Z,70.38
2022-08-23T08:30:50.712Z,69.80
2022-08-23T08:33:53.380Z,70.31
2022-08-23T08:36:58.959Z,69.74
2022-08-23T08:40:02.823Z,69.31
2022-08-23T08:43:39.876Z,69.45
2022-08-23T08:46:48.059Z,69.23
2022-08-23T08:50:26.834Z,68.94
2022-08-23T08:53:42.025Z,69.11
2022-08-23T08:56:52.717Z,69.03
2022-08-23T09:00:06.942Z,68.54
2022-08-23T09:03:20.636Z,68.44
2022-08-23T09:06:51.879Z,68.23
2022-08-23T09:10:15.133Z,68.24
2022-08-23T09:13:56.533Z,68.08
2022-08-23T09:17:05.593Z,67.95
2022-08-23T09:20:10.624Z,67.82
2022-08-23T09:23:35.784Z,67.88
2022-08-23T09:26:38.248Z,67.53
2022-08-23T09:29:52.960Z,67.83
2022-08-23T09:32:56.222Z,67.28
2022-08-23T09:36:15.402Z,67.23
2022-08-23T09:39:30.927Z,67.37
2022-08-23T09:42:39.814Z,67.40
2022-08-23T09:45:49.174Z,67.00
2022-08-23T09:48:58.955Z,66.68
2022-08-23T09:52:26.807Z,66.26
2022-08-23T09:55:37.345Z,66.29
2022-08-23T09:58:47.216Z,65.97
2022-08-23T10:01:59.616Z,66.11
2022-08-23T10:05:02.240Z,65.97
2022-08-23T10:08:10.320Z,66.02
2022-08-23T10:11:31.449Z,65.82
2022-08-23T10:14:34.495Z,65.42
2022-08-23T10:17:50.936Z,65.93
2022-08-23T10:20:58.938Z,65.28
2022-08-23T10:24:04.412Z,65.33
2022-08-23T10:27:40.570Z,65.51
2022-08-23T10:30:56.677Z,65.15
2022-08-23T10:34:17.542Z,65.25
2022-08-23T10:37:54.797Z,64.34
2022-08-23T10:41:35.742Z,64.34
2022-08-23T10:44:54.401Z,64.10
2022-08-23T10:48:00.603Z,63.61
2022-08-23T10:51:09.459Z,63.49
2022-08-23T10:54:35.098Z,63.48
2022-08-23T10:57:46.441Z,63.11
2022-08-23T11:00:51.700Z,63.58
2022-08-23T11:04:03.454Z,63.29
2022-08-23T11:07:30.393Z,62.67
2022-08-23T11:10:39.559Z,62.00
2022-08-23T11:13:54.716Z,62.14
2022-08-23T11:17:03.247Z,62.95
2022-08-23T11:20:09.997Z,63.01
2022-08-23T11:23:14.836Z,62.40
2022-08-23T11:26:22.756Z,62.39
2022-08-23T11:29:25.113Z,61.86
2022-08-23T11:32:50.255Z,61.89
2022-08-23T11:36:21.896Z,61.91
2022-08-23T11:39:25.403Z,61.81
2022-08-23T11:42:37.536Z,62.13
2022-08-23T11:45:46.593Z,61.34
2022-08-23T11:49:10.745Z,61.35
2022-08-23T11:52:46.623Z,61.08
2022-08-23T11:56:18.924Z,59.66
2022-08-23T11:59:21.224Z,59.71
2022-08-23T12:02:53.190Z,59.33
2022-08-23T12:05:55.540Z,59.39
2022-08-23T12:09:03.506Z,60.15
2022-08-23T12:12:39.419Z,59.12
2022-08-23T12:16:16.645Z,58.93
2022-08-23T12:19:34.033Z,58.25
2022-08-23T12:23:05.953Z,58.79
2022-08-23T12:26:14.220Z,58.78
2022-08-23T12:29:27.967Z,58.75
2022-08-23T12:33:05.283Z,59.00
2022-08-23T12:36:52.244Z,58.15
2022-08-23T12:39:58.409Z,58.64
2022-08-23T12:43:17.453Z,57.61
2022-08-23T12:46:43.845Z,57.92
2022-08-23T12:50:00.534Z,58.07
2022-08-23T12:53:12.550Z,57.63
2022-08-23T12:56:19.870Z,58.46
2022-08-23T12:59:36.769Z,58.89
2022-08-23T13:02:39.040Z,58.49
2022-08-23T13:05:46.219Z,58.89
2022-08-23T13:09:08.393Z,58.42
2022-08-23T13:12:11.500Z,57.33
2022-08-23T13:15:51.115Z,57.20
2022-08-23T13:18:53.790Z,57.70
2022-08-23T13:22:12.486Z,57.14
2022-08-23T13:25:31.354Z,57.44
2022-08-23T13:28:34.195Z,58.09
2022-08-23T13:32:03.067Z,57.50
2022-08-23T13:35:33.992Z,57.93
2022-08-23T13:38:36.753Z,58.51
2022-08-23T13:41:39.381Z,58.16
2022-08-23T13:44:43.254Z,58.98
2022-08-23T13:47:52.013Z,59.18
2022-08-23T13:50:54.163Z,58.54
2022-08-23T13:53:58.589Z,57.64
2022-08-23T13:57:03.346Z,57.65
2022-08-23T14:00:09.288Z,57.23
2022-08-23T14:03:14.150Z,57.69
2022-08-23T14:06:16.319Z,57.49
2022-08-23T14:09:18.732Z,57.71
2022-08-23T14:12:29.577Z,57.88
2022-08-23T14:22:17.837Z,57.84
2022-08-23T14:25:20.632Z,57.60
2022-08-23T14:28:26.595Z,57.17
2022-08-23T14:31:32.349Z,56.57
2022-08-23T14:34:34.730Z,57.14
2022-08-23T14:41:03.437Z,57.37
2022-08-23T14:44:06.532Z,57.79
2022-08-23T14:47:08.685Z,58.66
2022-08-23T14:50:13.358Z,57.98
2022-08-23T14:53:17.876Z,58.97
2022-08-23T14:56:21.748Z,58.68
2022-08-23T14:59:24.077Z,58.87
2022-08-23T15:02:29.175Z,58.66
2022-08-23T15:05:31.331Z,58.79
2022-08-23T15:08:33.596Z,57.30
2022-08-23T15:14:57.856Z,56.69
2022-08-23T15:18:03.023Z,57.75
2022-08-23T15:21:05.558Z,56.47
2022-08-23T15:24:08.105Z,57.04
2022-08-23T15:27:10.825Z,56.02
2022-08-23T15:30:15.786Z,55.46
2022-08-23T15:33:20.449Z,54.81
2022-08-23T15:36:24.738Z,54.91
2022-08-23T15:39:27.313Z,55.59
2022-08-23T15:42:29.554Z,55.19
2022-08-23T15:45:33.529Z,54.02
2022-08-23T15:48:49.137Z,53.88
2022-08-23T15:51:51.366Z,55.15
2022-08-23T15:54:54.606Z,54.15
2022-08-23T15:57:59.799Z,54.86
2022-08-23T16:01:01.842Z,55.71
2022-08-23T16:04:04.377Z,55.45
2022-08-23T16:07:08.013Z,56.14
2022-08-23T16:10:12.706Z,55.20
2022-08-23T16:13:15.440Z,55.44
2022-08-23T16:16:23.044Z,55.43
2022-08-23T16:19:26.665Z,55.97
2022-08-23T16:22:30.078Z,55.56
2022-08-23T16:25:32.939Z,55.89
2022-08-23T16:28:35.536Z,55.74
2022-08-23T16:31:41.219Z,56.24
2022-08-23T16:34:49.576Z,56.75
2022-08-23T16:37:56.167Z,57.67
2022-08-23T16:40:58.978Z,57.11
2022-08-23T16:44:01.481Z,57.99
2022-08-23T16:47:06.669Z,57.91
2022-08-23T16:50:10.341Z,58.83
2022-08-23T16:53:13.250Z,58.61
2022-08-23T16:56:19.425Z,59.49
2022-08-23T16:59:22.142Z,59.28
2022-08-23T17:02:37.065Z,59.80
2022-08-23T17:05:39.375Z,60.68
2022-08-23T17:08:41.955Z,60.13
2022-08-23T17:11:45.046Z,61.13
2022-08-23T17:14:52.206Z,61.31
2022-08-23T17:17:54.969Z,61.47
2022-08-23T17:20:57.997Z,61.63
2022-08-23T17:24:00.642Z,61.58
2022-08-23T17:27:03.025Z,62.24
2022-08-23T17:30:06.594Z,62.79
2022-08-23T17:33:10.786Z,62.40
2022-08-23T17:36:27.679Z,62.80
2022-08-23T17:39:29.785Z,63.06
2022-08-23T17:42:32.764Z,63.22
2022-08-23T17:45:44.499Z,63.62
2022-08-23T17:48:46.825Z,63.89
2022-08-23T17:51:49.482Z,63.81
2022-08-23T17:54:51.978Z,63.87
2022-08-23T17:57:57.685Z,63.88
2022-08-23T18:01:06.647Z,63.11
2022-08-23T18:04:08.867Z,62.31
2022-08-23T18:07:11.007Z,61.44
2022-08-23T18:10:13.417Z,60.91
2022-08-23T18:13:15.593Z,60.42
2022-08-23T18:16:18.312Z,60.08
2022-08-23T18:19:21.159Z,59.89
2022-08-23T18:22:23.398Z,58.98
2022-08-23T18:25:26.058Z,59.40
2022-08-23T18:28:28.438Z,59.34
2022-08-23T18:31:32.528Z,59.85
2022-08-23T18:34:36.649Z,59.62
2022-08-23T18:37:38.982Z,59.55
2022-08-23T18:40:46.031Z,59.95
2022-08-23T18:43:48.459Z,60.27
2022-08-23T18:46:51.648Z,59.97
2022-08-23T18:49:53.819Z,60.66
2022-08-23T18:52:56.055Z,60.27
2022-08-23T18:55:58.458Z,60.76
2022-08-23T18:59:01.850Z,61.32
2022-08-23T19:02:04.244Z,61.22
2022-08-23T19:05:07.229Z,61.30
2022-08-23T19:08:10.681Z,61.44
2022-08-23T19:11:13.242Z,62.04
2022-08-23T19:14:15.634Z,62.30
2022-08-23T19:17:17.965Z,62.24
2022-08-23T19:20:21.208Z,62.26
2022-08-23T19:23:23.492Z,62.43
2022-08-23T19:26:31.873Z,62.17
2022-08-23T19:29:34.805Z,62.13
2022-08-23T19:32:39.637Z,62.82
2022-08-23T19:35:42.449Z,62.84
2022-08-23T19:38:44.760Z,62.82
2022-08-23T19:41:48.614Z,62.86
2022-08-23T19:44:50.853Z,63.62
2022-08-23T19:47:54.025Z,63.20
2022-08-23T19:50:56.660Z,63.50
2022-08-23T19:54:11.055Z,63.67
2022-08-23T19:57:13.877Z,63.51
2022-08-23T20:00:19.627Z,63.53
2022-08-23T20:03:22.288Z,63.76
2022-08-23T20:06:24.625Z,63.63
2022-08-23T20:09:29.802Z,63.93
2022-08-23T20:12:33.323Z,63.79
2022-08-23T20:15:35.665Z,64.10
2022-08-23T20:18:37.869Z,63.85
2022-08-23T20:21:41.329Z,63.92
2022-08-23T20:24:51.347Z,64.18
2022-08-23T20:27:54.381Z,63.90
2022-08-23T20:30:56.570Z,63.93
2022-08-23T20:33:59.988Z,64.37
2022-08-23T20:37:03.042Z,64.11
2022-08-23T20:40:10.300Z,63.71
2022-08-23T20:43:12.422Z,63.47
2022-08-23T20:46:15.187Z,64.14
2022-08-23T20:49:17.742Z,63.89
2022-08-23T20:52:19.932Z,63.88
2022-08-23T20:55:22.106Z,63.78
2022-08-23T20:58:24.964Z,63.87
2022-08-23T21:01:27.103Z,64.22
2022-08-23T21:04:30.209Z,63.83
2022-08-23T21:07:32.762Z,63.98
2022-08-23T21:10:35.355Z,64.30
2022-08-23T21:13:41.445Z,64.30
2022-08-23T21:16:43.878Z,63.79
2022-08-23T21:19:46.053Z,63.88
2022-08-23T21:22:48.189Z,64.14
2022-08-23T21:25:57.586Z,64.22
2022-08-23T21:28:59.748Z,63.82
2022-08-23T21:32:02.012Z,63.96
2022-08-23T21:35:04.859Z,64.43
2022-08-23T21:38:07.000Z,64.22
2022-08-23T21:41:12.236Z,64.31
2022-08-23T21:44:17.299Z,64.39
2022-08-23T21:47:20.894Z,64.24
2022-08-23T21:50:24.563Z,64.03
2022-08-23T21:53:31.277Z,64.31
2022-08-23T21:56:33.601Z,64.57
2022-08-23T21:59:35.749Z,64.39
2022-08-23T22:02:37.948Z,64.88
2022-08-23T22:05:42.278Z,64.77
2022-08-23T22:08:45.519Z,64.20
2022-08-23T22:11:49.525Z,64.54
2022-08-23T22:14:51.685Z,64.76
2022-08-23T22:17:53.820Z,64.77
2022-08-23T22:20:57.555Z,64.29
2022-08-23T22:24:00.263Z,64.80
2022-08-23T22:27:02.386Z,64.17
2022-08-23T22:30:05.812Z,64.49
2022-08-23T22:33:07.977Z,64.47
2022-08-23T22:36:13.560Z,64.53
2022-08-23T22:39:15.726Z,65.50
2022-08-23T22:42:17.892Z,65.30
2022-08-23T22:45:20.140Z,65.21
2022-08-23T22:48:22.864Z,65.78
2022-08-23T22:51:31.139Z,65.92
2022-08-23T22:54:33.125Z,65.33
2022-08-23T22:57:35.674Z,65.79
2022-08-23T23:00:44.049Z,65.59
2022-08-23T23:03:46.933Z,66.14
2022-08-23T23:06:51.431Z,65.67
2022-08-23T23:09:53.796Z,65.30
2022-08-23T23:12:56.010Z,65.14
2022-08-23T23:16:02.333Z,65.44
2022-08-23T23:19:23.716Z,65.93
2022-08-23T23:22:25.856Z,65.87
2022-08-23T23:25:28.300Z,66.04
2022-08-23T23:28:34.077Z,66.42
2022-08-23T23:31:37.204Z,65.61
2022-08-23T23:34:39.461Z,66.09
2022-08-23T23:37:41.634Z,65.58
2022-08-23T23:40:43.967Z,65.54
2022-08-23T23:43:46.743Z,65.91
2022-08-23T23:46:49.794Z,65.44
2022-08-23T23:49:52.369Z,65.32
2022-08-23T23:52:55.309Z,65.43
2022-08-23T23:56:01.630Z,65.94
2022-08-23T23:59:03.963Z,65.63
